createdAt,value
2019-02-24T00:00:49.018Z,2.92
2019-02-24T00:05:43.655Z,2.89
2019-02-24T00:10:38.338Z,2.97
2019-02-24T00:15:32.906Z,2.85
2019-02-24T00:20:27.503Z,2.69
2019-02-24T00:25:22.071Z,2.55
2019-02-24T00:30:16.654Z,2.60
2019-02-24T00:35:11.221Z,2.78
2019-02-24T00:40:08.073Z,2.58
2019-02-24T00:45:02.620Z,2.69
2019-02-24T00:49:57.210Z,2.58
2019-02-24T00:54:51.784Z,2.34
2019-02-24T00:59:46.366Z,2.39
2019-02-24T01:04:41.024Z,2.36
2019-02-24T01:09:35.617Z,2.25
2019-02-24T01:14:30.189Z,2.10
2019-02-24T01:19:24.773Z,1.99
2019-02-24T01:24:19.353Z,1.96
2019-02-24T01:29:14.018Z,1.93
2019-02-24T01:34:08.587Z,1.83
2019-02-24T01:39:03.275Z,1.90
2019-02-24T01:43:57.894Z,1.77
2019-02-24T01:48:52.491Z,1.59
2019-02-24T01:53:47.050Z,1.69
2019-02-24T01:58:41.636Z,1.51
2019-02-24T02:03:36.240Z,1.32
2019-02-24T02:08:30.815Z,1.27
2019-02-24T02:13:25.381Z,1.14
2019-02-24T02:18:19.969Z,1.14
2019-02-24T02:23:14.537Z,1.08
2019-02-24T02:28:09.131Z,0.98
2019-02-24T02:33:03.705Z,1.05
2019-02-24T02:37:58.362Z,1.10
2019-02-24T02:42:52.940Z,1.04
2019-02-24T02:47:47.509Z,0.98
2019-02-24T02:52:42.080Z,0.76
2019-02-24T02:57:36.679Z,0.66
2019-02-24T03:02:31.254Z,0.61
2019-02-24T03:07:27.474Z,0.71
2019-02-24T03:12:22.039Z,0.58
2019-02-24T03:17:16.638Z,0.57
2019-02-24T03:22:11.195Z,0.57
2019-02-24T03:27:05.779Z,0.63
2019-02-24T03:32:00.367Z,0.65
2019-02-24T03:36:54.947Z,0.64
2019-02-24T03:41:49.518Z,0.65
2019-02-24T03:46:44.125Z,0.54
2019-02-24T03:51:38.690Z,0.48
2019-02-24T03:56:33.373Z,0.57
2019-02-24T04:01:27.941Z,0.48
2019-02-24T04:06:22.538Z,0.40
2019-02-24T04:11:17.094Z,0.44
2019-02-24T04:16:11.687Z,0.36
2019-02-24T04:21:06.278Z,0.40
2019-02-24T04:26:00.872Z,0.25
2019-02-24T04:30:55.433Z,0.22
2019-02-24T04:35:50.015Z,0.13
2019-02-24T04:40:44.589Z,0.17
2019-02-24T04:45:39.156Z,0.25
2019-02-24T04:50:33.738Z,0.46
2019-02-24T04:55:28.309Z,0.53
2019-02-24T05:00:22.892Z,0.47
2019-02-24T05:05:17.484Z,0.55
2019-02-24T05:10:12.063Z,0.48
2019-02-24T05:15:07.495Z,0.59
2019-02-24T05:20:02.074Z,0.50
2019-02-24T05:24:56.651Z,0.62
2019-02-24T05:29:51.233Z,0.50
2019-02-24T05:34:45.805Z,0.47
2019-02-24T05:39:40.385Z,0.62
2019-02-24T05:44:34.966Z,0.62
2019-02-24T05:49:29.556Z,0.57
2019-02-24T05:54:24.143Z,0.63
2019-02-24T05:59:18.707Z,0.53
2019-02-24T06:04:13.282Z,0.56
2019-02-24T06:09:09.716Z,0.67
2019-02-24T06:14:04.317Z,0.53
2019-02-24T06:18:58.905Z,0.58
2019-02-24T06:23:53.466Z,0.48
2019-02-24T06:28:48.055Z,0.64
2019-02-24T06:33:42.669Z,1.05
2019-02-24T06:38:37.259Z,1.49
2019-02-24T06:43:32.071Z,2.04
2019-02-24T06:48:26.664Z,2.48
2019-02-24T06:53:21.221Z,2.72
2019-02-24T06:58:15.887Z,2.67
2019-02-24T07:03:10.459Z,2.51
2019-02-24T07:08:05.053Z,2.29
2019-02-24T07:12:59.637Z,2.15
2019-02-24T07:17:54.215Z,2.21
2019-02-24T07:22:48.773Z,2.21
2019-02-24T07:27:43.350Z,2.16
2019-02-24T07:32:37.936Z,2.32
2019-02-24T07:37:32.528Z,2.50
2019-02-24T07:42:27.148Z,2.67
2019-02-24T07:47:21.725Z,2.76
2019-02-24T07:52:16.319Z,2.85
2019-02-24T07:57:10.900Z,2.92
2019-02-24T08:02:05.486Z,3.00
2019-02-24T08:07:00.124Z,3.21
2019-02-24T08:11:54.706Z,3.38
2019-02-24T08:16:49.294Z,3.44
2019-02-24T08:21:43.884Z,3.56
2019-02-24T08:26:38.471Z,3.65
2019-02-24T08:31:33.040Z,3.73
2019-02-24T08:36:27.626Z,3.86
2019-02-24T08:41:22.195Z,4.03
2019-02-24T08:46:16.806Z,4.10
2019-02-24T08:51:11.385Z,4.23
2019-02-24T08:56:06.072Z,3.95
2019-02-24T09:01:00.666Z,3.90
2019-02-24T09:05:55.244Z,4.19
2019-02-24T09:10:49.834Z,4.36
2019-02-24T09:15:44.416Z,4.26
2019-02-24T09:20:38.979Z,4.40
2019-02-24T09:25:33.566Z,4.61
2019-02-24T09:30:28.150Z,4.71
2019-02-24T09:35:22.740Z,4.67
2019-02-24T09:40:17.324Z,4.83
2019-02-24T09:45:13.450Z,4.99
2019-02-24T09:50:10.633Z,5.38
2019-02-24T09:55:08.221Z,5.34
2019-02-24T10:00:02.891Z,5.50
2019-02-24T10:04:57.534Z,5.68
2019-02-24T10:09:52.119Z,5.75
2019-02-24T10:14:46.685Z,5.80
2019-02-24T10:19:41.286Z,5.68
2019-02-24T10:24:35.860Z,5.86
2019-02-24T10:29:30.442Z,6.18
2019-02-24T10:34:25.008Z,6.45
2019-02-24T10:39:19.606Z,6.63
2019-02-24T10:44:14.174Z,6.75
2019-02-24T10:49:08.768Z,6.84
2019-02-24T10:54:03.413Z,6.89
2019-02-24T10:58:58.007Z,7.07
2019-02-24T11:03:52.590Z,7.18
2019-02-24T11:08:47.191Z,7.30
2019-02-24T11:13:41.770Z,7.21
2019-02-24T11:18:36.357Z,7.35
2019-02-24T11:23:30.919Z,7.42
2019-02-24T11:28:25.511Z,7.36
2019-02-24T11:33:20.113Z,7.65
2019-02-24T11:38:14.771Z,8.06
2019-02-24T11:43:09.416Z,8.32
2019-02-24T11:48:04.012Z,8.61
2019-02-24T11:52:58.628Z,8.75
2019-02-24T11:57:53.246Z,8.56
2019-02-24T12:02:47.850Z,8.49
2019-02-24T12:07:42.476Z,8.26
2019-02-24T12:12:37.072Z,8.17
2019-02-24T12:17:31.660Z,8.13
2019-02-24T12:22:26.269Z,8.10
2019-02-24T12:27:20.849Z,8.15
2019-02-24T12:32:15.415Z,8.11
2019-02-24T12:37:09.996Z,8.23
2019-02-24T12:42:04.723Z,8.37
2019-02-24T12:47:00.520Z,8.60
2019-02-24T12:51:55.484Z,8.94
2019-02-24T12:56:50.126Z,9.26
2019-02-24T13:01:44.734Z,9.35
2019-02-24T13:06:39.314Z,9.33
2019-02-24T13:11:33.892Z,9.55
2019-02-24T13:16:28.483Z,9.51
2019-02-24T13:21:23.049Z,9.12
2019-02-24T13:26:17.639Z,9.16
2019-02-24T13:31:12.287Z,9.18
2019-02-24T13:36:06.879Z,9.45
2019-02-24T13:41:01.460Z,9.70
2019-02-24T13:45:56.030Z,9.96
2019-02-24T13:50:50.633Z,10.22
2019-02-24T13:55:45.258Z,10.06
2019-02-24T14:00:39.857Z,9.65
2019-02-24T14:05:34.466Z,9.63
2019-02-24T14:10:29.056Z,10.04
2019-02-24T14:15:23.700Z,9.97
2019-02-24T14:20:19.494Z,9.72
2019-02-24T14:25:16.128Z,9.51
2019-02-24T14:30:18.994Z,9.31
2019-02-24T14:35:23.104Z,9.07
2019-02-24T14:40:17.676Z,8.88
2019-02-24T14:45:22.932Z,8.42
2019-02-24T14:50:17.535Z,8.30
2019-02-24T14:55:14.226Z,7.84
2019-02-24T15:00:23.995Z,7.88
2019-02-24T15:05:18.631Z,7.99
2019-02-24T15:10:20.307Z,8.12
2019-02-24T15:15:21.098Z,8.17
2019-02-24T15:20:21.200Z,8.28
2019-02-24T15:25:18.490Z,8.46
2019-02-24T15:30:35.595Z,8.30
2019-02-24T15:35:30.387Z,8.03
2019-02-24T15:40:25.042Z,7.94
2019-02-24T15:45:19.840Z,7.93
2019-02-24T15:50:15.339Z,7.92
2019-02-24T15:55:15.673Z,8.11
2019-02-24T16:00:25.228Z,8.12
2019-02-24T16:05:19.797Z,8.14
2019-02-24T16:10:22.919Z,8.26
2019-02-24T16:15:26.479Z,8.33
2019-02-24T16:20:25.440Z,8.38
2019-02-24T16:25:20.047Z,8.40
2019-02-24T16:30:16.726Z,8.46
2019-02-24T16:35:17.614Z,8.41
2019-02-24T16:40:19.020Z,8.34
2019-02-24T16:45:16.547Z,8.30
2019-02-24T16:50:15.206Z,8.19
2019-02-24T16:55:14.008Z,8.12
2019-02-24T17:00:20.835Z,7.98
2019-02-24T17:05:15.821Z,7.96
2019-02-24T17:10:17.408Z,7.89
2019-02-24T17:15:13.907Z,7.67
2019-02-24T17:20:18.551Z,7.77
2019-02-24T17:25:13.432Z,7.47
2019-02-24T17:30:14.919Z,7.20
2019-02-24T17:35:11.211Z,7.00
2019-02-24T17:40:15.527Z,6.87
2019-02-24T17:45:13.273Z,6.72
2019-02-24T17:50:13.574Z,6.61
2019-02-24T17:55:19.568Z,6.43
2019-02-24T18:00:27.362Z,6.38
2019-02-24T18:05:21.952Z,6.17
2019-02-24T18:10:16.852Z,5.95
2019-02-24T18:15:13.247Z,5.83
2019-02-24T18:20:18.314Z,5.69
2019-02-24T18:25:13.912Z,5.56
2019-02-24T18:30:27.766Z,5.51
2019-02-24T18:35:22.345Z,5.47
2019-02-24T18:40:17.885Z,5.42
2019-02-24T18:45:16.838Z,5.32
2019-02-24T18:50:19.853Z,5.26
2019-02-24T18:55:14.767Z,5.38
2019-02-24T19:00:16.810Z,5.12
2019-02-24T19:05:11.475Z,4.98
2019-02-24T19:10:16.614Z,4.90
2019-02-24T19:15:18.162Z,4.74
2019-02-24T19:20:25.245Z,4.57
2019-02-24T19:25:20.071Z,4.45
2019-02-24T19:30:23.776Z,4.40
2019-02-24T19:35:19.853Z,4.36
2019-02-24T19:40:20.279Z,4.27
2019-02-24T19:45:17.957Z,4.26
2019-02-24T19:50:16.651Z,4.12
2019-02-24T19:55:14.441Z,4.08
2019-02-24T20:00:22.472Z,4.08
2019-02-24T20:05:17.207Z,4.03
2019-02-24T20:10:16.355Z,3.95
2019-02-24T20:15:16.825Z,3.94
2019-02-24T20:20:18.808Z,3.93
2019-02-24T20:25:20.512Z,3.89
2019-02-24T20:30:30.870Z,3.74
2019-02-24T20:35:25.434Z,3.72
2019-02-24T20:40:20.096Z,3.72
2019-02-24T20:45:23.385Z,3.59
2019-02-24T20:50:24.406Z,3.53
2019-02-24T20:55:18.980Z,3.47
2019-02-24T21:00:21.019Z,3.48
2019-02-24T21:05:15.586Z,3.50
2019-02-24T21:10:12.685Z,3.41
2019-02-24T21:15:11.962Z,3.38
2019-02-24T21:20:11.187Z,3.28
2019-02-24T21:25:07.494Z,3.19
2019-02-24T21:30:02.081Z,3.20
2019-02-24T21:34:56.691Z,3.24
2019-02-24T21:39:51.282Z,3.23
2019-02-24T21:44:45.855Z,3.24
2019-02-24T21:49:40.502Z,3.24
2019-02-24T21:54:35.761Z,3.16
2019-02-24T21:59:36.823Z,3.09
2019-02-24T22:04:26.645Z,3.00
2019-02-24T22:09:21.232Z,2.88
2019-02-24T22:14:15.838Z,2.82
2019-02-24T22:19:10.433Z,2.82
2019-02-24T22:24:05.015Z,2.80
2019-02-24T22:28:59.626Z,2.75
2019-02-24T22:33:54.208Z,2.73
2019-02-24T22:38:48.810Z,2.66
2019-02-24T22:43:43.473Z,2.60
2019-02-24T22:48:38.138Z,2.58
2019-02-24T22:53:32.735Z,2.59
2019-02-24T22:58:27.341Z,2.64
2019-02-24T23:03:28.356Z,2.58
2019-02-24T23:08:22.940Z,2.46
2019-02-24T23:13:17.518Z,2.49
2019-02-24T23:18:12.096Z,2.37
2019-02-24T23:23:06.753Z,2.23
2019-02-24T23:28:01.344Z,2.22
2019-02-24T23:32:55.946Z,2.28
2019-02-24T23:37:50.518Z,2.20
2019-02-24T23:42:45.091Z,2.25
2019-02-24T23:47:39.864Z,2.24
2019-02-24T23:52:34.697Z,2.20
2019-02-24T23:57:29.291Z,2.08
